createdAt,value
2019-02-17T00:00:33.678Z,2.60
2019-02-17T00:03:14.982Z,2.60
2019-02-17T00:05:55.592Z,2.50
2019-02-17T00:08:36.347Z,2.40
2019-02-17T00:11:17.073Z,2.40
2019-02-17T00:13:57.754Z,2.40
2019-02-17T00:16:38.585Z,2.40
2019-02-17T00:19:19.827Z,2.40
2019-02-17T00:22:00.689Z,2.50
2019-02-17T00:24:41.310Z,2.60
2019-02-17T00:27:22.041Z,2.70
2019-02-17T00:30:02.951Z,2.70
2019-02-17T00:32:43.826Z,2.50
2019-02-17T00:35:24.653Z,2.40
2019-02-17T00:38:05.460Z,2.30
2019-02-17T00:40:46.187Z,2.20
2019-02-17T00:43:27.022Z,2.20
2019-02-17T00:46:07.873Z,2.20
2019-02-17T00:48:48.877Z,2.10
2019-02-17T00:51:29.672Z,2.10
2019-02-17T00:54:10.295Z,2.10
2019-02-17T00:56:50.788Z,2.20
2019-02-17T00:59:32.010Z,2.10
2019-02-17T01:02:12.979Z,2.10
2019-02-17T01:04:54.117Z,2.10
2019-02-17T01:07:34.755Z,2.10
2019-02-17T01:10:15.760Z,2.20
2019-02-17T01:12:56.214Z,2.20
2019-02-17T01:15:36.663Z,2.10
2019-02-17T01:18:17.541Z,2.10
2019-02-17T01:20:58.729Z,2.10
2019-02-17T01:23:39.456Z,2.00
2019-02-17T01:26:20.268Z,2.00
2019-02-17T01:29:01.012Z,2.00
2019-02-17T01:31:41.931Z,2.00
2019-02-17T01:34:22.713Z,2.00
2019-02-17T01:37:03.596Z,2.00
2019-02-17T01:39:44.464Z,2.00
2019-02-17T01:42:25.357Z,2.00
2019-02-17T01:45:06.176Z,2.00
2019-02-17T01:47:47.189Z,1.90
2019-02-17T01:50:27.837Z,1.90
2019-02-17T01:53:08.631Z,1.80
2019-02-17T01:55:49.826Z,1.80
2019-02-17T01:58:30.688Z,1.80
2019-02-17T02:01:11.471Z,1.70
2019-02-17T02:03:52.322Z,1.70
2019-02-17T02:06:33.301Z,1.60
2019-02-17T02:09:14.213Z,1.60
2019-02-17T02:11:54.981Z,1.60
2019-02-17T02:14:35.646Z,1.60
2019-02-17T02:17:16.482Z,1.70
2019-02-17T02:19:56.959Z,1.80
2019-02-17T02:22:37.601Z,1.90
2019-02-17T02:25:18.617Z,1.80
2019-02-17T02:27:59.490Z,1.80
2019-02-17T02:30:40.824Z,1.70
2019-02-17T02:33:21.321Z,1.70
2019-02-17T02:36:02.352Z,1.70
2019-02-17T02:38:43.164Z,1.70
2019-02-17T02:41:34.109Z,1.70
2019-02-17T02:44:06.970Z,1.60
2019-02-17T02:46:48.054Z,1.50
2019-02-17T02:49:29.077Z,1.50
2019-02-17T02:52:09.543Z,1.50
2019-02-17T02:54:50.157Z,1.50
2019-02-17T02:57:31.222Z,1.60
2019-02-17T03:00:12.455Z,1.70
2019-02-17T03:02:52.892Z,1.70
2019-02-17T03:05:34.976Z,1.80
2019-02-17T03:08:15.603Z,1.80
2019-02-17T03:10:57.886Z,1.80
2019-02-17T03:13:38.867Z,1.70
2019-02-17T03:16:19.657Z,1.60
2019-02-17T03:19:00.417Z,1.40
2019-02-17T03:21:41.214Z,1.30
2019-02-17T03:24:21.931Z,1.30
2019-02-17T03:27:02.968Z,1.30
2019-02-17T03:29:44.053Z,1.20
2019-02-17T03:32:25.263Z,1.30
2019-02-17T03:35:06.040Z,1.30
2019-02-17T03:37:46.632Z,1.20
2019-02-17T03:40:27.361Z,1.10
2019-02-17T03:43:08.121Z,1.10
2019-02-17T03:45:49.211Z,1.20
2019-02-17T03:48:29.716Z,1.60
2019-02-17T03:51:10.667Z,1.50
2019-02-17T03:53:51.538Z,1.50
2019-02-17T03:56:32.299Z,1.40
2019-02-17T03:59:12.906Z,1.40
2019-02-17T04:01:53.822Z,1.40
2019-02-17T04:04:34.531Z,1.40
2019-02-17T04:07:15.279Z,1.30
2019-02-17T04:09:56.609Z,1.40
2019-02-17T04:12:37.658Z,1.40
2019-02-17T04:15:18.496Z,1.30
2019-02-17T04:17:59.146Z,1.30
2019-02-17T04:20:40.000Z,1.30
2019-02-17T04:23:31.057Z,1.30
2019-02-17T04:26:03.448Z,1.30
2019-02-17T04:28:44.304Z,1.30
2019-02-17T04:31:25.173Z,1.20
2019-02-17T04:34:06.429Z,1.30
2019-02-17T04:36:47.267Z,1.40
2019-02-17T04:39:28.027Z,1.30
2019-02-17T04:42:08.884Z,1.20
2019-02-17T04:44:49.718Z,1.20
2019-02-17T04:47:30.652Z,1.20
2019-02-17T04:50:11.435Z,1.10
2019-02-17T04:52:52.517Z,1.30
2019-02-17T04:55:33.654Z,1.30
2019-02-17T04:58:14.457Z,1.30
2019-02-17T05:00:55.291Z,1.20
2019-02-17T05:03:36.118Z,1.10
2019-02-17T05:06:16.864Z,1.00
2019-02-17T05:08:57.882Z,1.00
2019-02-17T05:11:38.327Z,0.90
2019-02-17T05:14:19.141Z,0.90
2019-02-17T05:22:19.328Z,1.20
2019-02-17T05:25:00.054Z,1.20
2019-02-17T05:27:40.692Z,1.10
2019-02-17T05:30:21.518Z,1.10
2019-02-17T05:33:02.199Z,1.10
2019-02-17T05:35:43.316Z,1.20
2019-02-17T05:38:23.902Z,1.30
2019-02-17T05:41:04.517Z,1.40
2019-02-17T05:43:45.362Z,1.40
2019-02-17T05:46:26.057Z,1.30
2019-02-17T05:49:07.098Z,1.20
2019-02-17T05:51:47.938Z,1.20
2019-02-17T05:54:28.718Z,1.10
2019-02-17T05:57:09.797Z,1.10
2019-02-17T05:59:50.534Z,1.00
2019-02-17T06:02:31.279Z,0.90
2019-02-17T06:05:12.143Z,1.00
2019-02-17T06:07:52.921Z,0.90
2019-02-17T06:10:33.788Z,0.90
2019-02-17T06:13:14.773Z,0.90
2019-02-17T06:15:55.679Z,0.90
2019-02-17T06:18:36.381Z,1.00
2019-02-17T06:21:17.337Z,1.00
2019-02-17T06:23:58.004Z,0.90
2019-02-17T06:26:38.886Z,0.90
2019-02-17T06:29:19.572Z,1.00
2019-02-17T06:32:00.307Z,1.10
2019-02-17T06:34:40.934Z,1.10
2019-02-17T06:37:21.778Z,1.20
2019-02-17T06:40:02.556Z,1.20
2019-02-17T06:42:43.444Z,1.10
2019-02-17T06:45:24.189Z,1.10
2019-02-17T06:48:05.198Z,1.10
2019-02-17T06:50:46.210Z,1.10
2019-02-17T06:53:26.680Z,1.10
2019-02-17T06:56:26.131Z,1.20
2019-02-17T06:59:06.619Z,1.30
2019-02-17T07:01:47.767Z,1.10
2019-02-17T07:04:47.465Z,1.00
2019-02-17T07:07:29.046Z,0.90
2019-02-17T07:10:10.490Z,0.80
2019-02-17T07:12:51.489Z,0.70
2019-02-17T07:15:32.154Z,0.70
2019-02-17T07:18:01.107Z,0.80
2019-02-17T07:20:49.196Z,0.90
2019-02-17T07:23:37.394Z,1.10
2019-02-17T07:26:25.557Z,1.20
2019-02-17T07:29:06.560Z,1.20
2019-02-17T07:31:47.476Z,1.20
2019-02-17T07:34:27.917Z,1.30
2019-02-17T07:37:08.925Z,1.40
2019-02-17T07:39:50.173Z,1.40
2019-02-17T07:42:31.513Z,1.30
2019-02-17T07:45:12.280Z,1.30
2019-02-17T07:47:53.062Z,1.40
2019-02-17T07:50:33.807Z,1.30
2019-02-17T07:53:14.579Z,1.40
2019-02-17T07:55:55.509Z,1.40
2019-02-17T07:58:36.286Z,1.40
2019-02-17T08:01:17.292Z,1.40
2019-02-17T08:03:58.004Z,1.40
2019-02-17T08:06:39.214Z,1.50
2019-02-17T08:09:20.011Z,1.60
2019-02-17T08:12:00.783Z,1.70
2019-02-17T08:14:41.983Z,1.70
2019-02-17T08:17:22.841Z,1.90
2019-02-17T08:20:03.564Z,2.30
2019-02-17T08:22:44.319Z,2.70
2019-02-17T08:25:25.109Z,3.10
2019-02-17T08:28:05.762Z,3.40
2019-02-17T08:30:46.731Z,3.90
2019-02-17T08:33:27.480Z,4.20
2019-02-17T08:38:46.682Z,5.00
2019-02-17T08:41:27.575Z,5.30
2019-02-17T08:44:08.418Z,5.70
2019-02-17T08:46:49.035Z,6.00
2019-02-17T08:49:29.585Z,6.40
2019-02-17T08:52:10.408Z,6.70
2019-02-17T08:54:51.201Z,7.00
2019-02-17T08:57:32.327Z,7.30
2019-02-17T09:00:13.254Z,7.50
2019-02-17T09:02:54.010Z,7.70
2019-02-17T09:05:43.933Z,7.80
2019-02-17T09:08:17.917Z,8.00
2019-02-17T09:10:58.963Z,8.20
2019-02-17T09:13:40.246Z,8.20
2019-02-17T09:16:21.028Z,8.30
2019-02-17T09:19:01.793Z,8.40
2019-02-17T09:21:42.544Z,8.40
2019-02-17T09:24:23.532Z,8.40
2019-02-17T09:27:04.212Z,8.40
2019-02-17T09:29:45.048Z,8.40
2019-02-17T09:32:26.171Z,8.40
2019-02-17T09:35:06.887Z,8.40
2019-02-17T09:37:47.712Z,8.40
2019-02-17T09:40:28.715Z,8.40
2019-02-17T09:43:09.403Z,8.40
2019-02-17T09:45:50.096Z,8.40
2019-02-17T09:51:10.269Z,8.50
2019-02-17T09:53:50.900Z,8.60
2019-02-17T09:56:31.945Z,8.60
2019-02-17T09:59:12.670Z,8.60
2019-02-17T10:01:53.502Z,8.50
2019-02-17T10:04:34.300Z,8.50
2019-02-17T10:07:14.956Z,8.50
2019-02-17T10:09:56.398Z,8.50
2019-02-17T10:12:36.800Z,8.60
2019-02-17T10:15:17.878Z,8.60
2019-02-17T10:17:58.554Z,8.60
2019-02-17T10:20:39.871Z,8.70
2019-02-17T10:23:20.969Z,8.70
2019-02-17T10:26:01.804Z,8.70
2019-02-17T10:28:42.786Z,8.70
2019-02-17T10:31:26.616Z,8.80
2019-02-17T10:34:06.968Z,8.70
2019-02-17T10:36:47.970Z,8.70
2019-02-17T10:39:29.266Z,8.80
2019-02-17T10:42:10.438Z,8.80
2019-02-17T10:44:51.015Z,8.90
2019-02-17T10:47:20.075Z,8.90
2019-02-17T10:50:08.462Z,8.90
2019-02-17T10:52:49.651Z,8.90
2019-02-17T10:55:30.380Z,8.90
2019-02-17T10:58:11.048Z,8.80
2019-02-17T11:00:51.908Z,8.70
2019-02-17T11:03:33.090Z,8.70
2019-02-17T11:06:13.676Z,8.70
2019-02-17T11:08:54.530Z,8.70
2019-02-17T11:11:35.448Z,8.70
2019-02-17T11:14:16.446Z,8.70
2019-02-17T11:16:57.395Z,8.70
2019-02-17T11:19:38.368Z,8.70
2019-02-17T11:22:23.097Z,8.60
2019-02-17T11:25:02.013Z,8.70
2019-02-17T11:27:42.713Z,8.80
2019-02-17T11:30:23.537Z,8.80
2019-02-17T11:33:04.286Z,8.90
2019-02-17T11:35:45.921Z,8.90
2019-02-17T11:38:26.844Z,9.00
2019-02-17T11:41:08.290Z,9.10
2019-02-17T11:43:48.941Z,9.10
2019-02-17T11:46:30.214Z,9.30
2019-02-17T11:49:10.954Z,9.30
2019-02-17T11:51:51.388Z,9.30
2019-02-17T11:54:31.825Z,9.30
2019-02-17T11:57:12.535Z,9.30
2019-02-17T11:59:53.614Z,9.30
2019-02-17T12:02:34.730Z,9.30
2019-02-17T12:05:16.025Z,9.40
2019-02-17T12:07:56.732Z,9.40
2019-02-17T12:10:37.962Z,9.50
2019-02-17T12:13:18.672Z,9.60
2019-02-17T12:15:59.661Z,9.70
2019-02-17T12:21:42.524Z,9.80
2019-02-17T12:24:27.069Z,9.90
2019-02-17T12:27:32.620Z,10.00
2019-02-17T12:30:16.924Z,10.10
2019-02-17T12:32:58.133Z,10.10
2019-02-17T12:35:38.843Z,10.30
2019-02-17T12:38:19.754Z,10.30
2019-02-17T12:41:00.821Z,10.30
2019-02-17T12:43:41.449Z,10.40
2019-02-17T12:46:22.153Z,10.50
2019-02-17T12:49:02.778Z,10.50
2019-02-17T12:51:43.534Z,10.70
2019-02-17T12:54:29.210Z,10.80
2019-02-17T12:57:07.164Z,10.90
2019-02-17T12:59:48.036Z,10.90
2019-02-17T13:02:28.820Z,11.00
2019-02-17T13:05:09.744Z,11.20
2019-02-17T13:07:50.424Z,11.40
2019-02-17T13:10:31.182Z,11.50
2019-02-17T13:13:11.965Z,11.80
2019-02-17T13:15:40.852Z,12.10
2019-02-17T13:18:29.120Z,12.50
2019-02-17T13:24:40.172Z,12.90
2019-02-17T13:27:21.516Z,13.20
2019-02-17T13:30:02.135Z,13.30
2019-02-17T13:32:43.049Z,13.50
2019-02-17T13:35:24.319Z,13.70
2019-02-17T13:38:05.017Z,13.90
2019-02-17T13:40:45.769Z,14.20
2019-02-17T13:43:26.628Z,14.40
2019-02-17T13:46:07.437Z,14.40
2019-02-17T13:48:48.136Z,14.50
2019-02-17T13:51:28.930Z,14.70
2019-02-17T13:54:09.748Z,14.90
2019-02-17T13:56:50.564Z,15.10
2019-02-17T13:59:31.585Z,15.40
2019-02-17T14:02:12.284Z,15.40
2019-02-17T14:04:52.885Z,15.50
2019-02-17T14:10:13.756Z,15.60
2019-02-17T14:12:55.086Z,15.70
2019-02-17T14:15:35.929Z,16.10
2019-02-17T14:18:16.771Z,16.30
2019-02-17T14:20:57.762Z,16.50
2019-02-17T14:23:38.420Z,16.70
2019-02-17T14:26:19.164Z,16.80
2019-02-17T14:29:00.098Z,16.90
2019-02-17T14:31:29.144Z,17.00
2019-02-17T14:34:17.234Z,16.80
2019-02-17T14:37:05.398Z,16.80
2019-02-17T14:39:46.669Z,16.90
2019-02-17T14:42:27.340Z,16.90
2019-02-17T14:45:08.211Z,16.90
2019-02-17T14:47:49.208Z,17.00
2019-02-17T14:50:29.684Z,17.00
2019-02-17T14:53:10.639Z,17.10
2019-02-17T14:55:51.428Z,17.30
2019-02-17T14:58:32.163Z,17.50
2019-02-17T15:01:13.070Z,17.50
2019-02-17T15:03:54.034Z,17.50
2019-02-17T15:06:35.186Z,17.70
2019-02-17T15:09:16.208Z,17.60
2019-02-17T15:11:56.561Z,16.70
2019-02-17T15:14:37.554Z,15.50
2019-02-17T15:17:18.392Z,14.40
2019-02-17T15:19:59.352Z,13.60
2019-02-17T15:22:39.933Z,12.90
2019-02-17T15:25:20.601Z,12.40
2019-02-17T15:28:01.520Z,12.00
2019-02-17T15:30:42.213Z,11.60
2019-02-17T15:33:22.922Z,11.40
2019-02-17T15:36:03.766Z,11.10
2019-02-17T15:38:44.561Z,10.90
2019-02-17T15:41:25.376Z,10.70
2019-02-17T15:44:06.113Z,10.60
2019-02-17T15:46:46.998Z,10.50
2019-02-17T15:49:27.738Z,10.40
2019-02-17T15:52:08.424Z,10.30
2019-02-17T15:54:49.272Z,10.10
2019-02-17T15:57:29.890Z,10.00
2019-02-17T16:00:10.646Z,9.80
2019-02-17T16:02:51.408Z,9.70
2019-02-17T16:05:32.120Z,9.50
2019-02-17T16:08:12.705Z,9.30
2019-02-17T16:10:53.635Z,9.20
2019-02-17T16:13:34.711Z,9.10
2019-02-17T16:16:15.278Z,9.00
2019-02-17T16:18:56.048Z,8.90
2019-02-17T16:21:36.962Z,8.80
2019-02-17T16:24:17.821Z,8.70
2019-02-17T16:26:58.362Z,8.70
2019-02-17T16:29:39.064Z,8.70
2019-02-17T16:32:21.691Z,8.80
2019-02-17T16:35:02.278Z,8.80
2019-02-17T16:37:42.987Z,8.80
2019-02-17T16:40:23.976Z,8.70
2019-02-17T16:43:04.643Z,8.60
2019-02-17T16:45:45.250Z,8.50
2019-02-17T16:48:26.389Z,8.40
2019-02-17T16:51:07.302Z,8.50
2019-02-17T16:53:48.018Z,8.40
2019-02-17T16:56:28.817Z,8.30
2019-02-17T16:59:09.786Z,8.20
2019-02-17T17:01:50.512Z,8.00
2019-02-17T17:04:31.440Z,7.80
2019-02-17T17:07:12.203Z,7.70
2019-02-17T17:09:52.886Z,7.70
2019-02-17T17:12:33.400Z,7.60
2019-02-17T17:15:14.016Z,7.60
2019-02-17T17:17:54.694Z,7.60
2019-02-17T17:20:35.484Z,7.50
2019-02-17T17:23:16.004Z,7.40
2019-02-17T17:25:56.432Z,7.40
2019-02-17T17:28:37.457Z,7.40
2019-02-17T17:31:18.472Z,7.40
2019-02-17T17:33:59.577Z,7.20
2019-02-17T17:36:40.400Z,7.10
2019-02-17T17:39:21.080Z,7.00
2019-02-17T17:42:01.789Z,6.90
2019-02-17T17:44:43.305Z,7.00
2019-02-17T17:47:24.684Z,7.00
2019-02-17T17:49:53.750Z,6.80
2019-02-17T17:52:41.923Z,6.70
2019-02-17T17:55:22.909Z,6.60
2019-02-17T17:58:03.776Z,6.70
2019-02-17T18:00:44.718Z,6.60
2019-02-17T18:03:25.577Z,6.50
2019-02-17T18:06:06.446Z,6.40
2019-02-17T18:08:47.428Z,6.40
2019-02-17T18:11:28.491Z,6.30
2019-02-17T18:14:09.272Z,6.20
2019-02-17T18:16:50.140Z,6.20
2019-02-17T18:19:30.940Z,6.30
2019-02-17T18:22:11.558Z,6.30
2019-02-17T18:24:51.972Z,6.30
2019-02-17T18:27:32.878Z,6.30
2019-02-17T18:30:13.702Z,6.30
2019-02-17T18:32:54.785Z,6.40
2019-02-17T18:35:35.500Z,6.40
2019-02-17T18:38:16.253Z,6.20
2019-02-17T18:40:56.989Z,6.10
2019-02-17T18:43:37.682Z,6.20
2019-02-17T18:46:18.613Z,6.10
2019-02-17T18:48:59.524Z,6.00
2019-02-17T18:51:41.820Z,5.90
2019-02-17T18:54:22.317Z,6.00
2019-02-17T18:57:08.213Z,5.90
2019-02-17T18:59:45.542Z,5.90
2019-02-17T19:02:26.412Z,5.90
2019-02-17T19:05:07.408Z,5.90
2019-02-17T19:07:48.262Z,5.90
2019-02-17T19:10:29.073Z,5.90
2019-02-17T19:13:09.803Z,5.80
2019-02-17T19:15:50.485Z,5.90
2019-02-17T19:18:31.328Z,5.80
2019-02-17T19:21:15.180Z,5.70
2019-02-17T19:23:55.696Z,5.50
2019-02-17T19:26:36.674Z,5.40
2019-02-17T19:29:17.355Z,5.40
2019-02-17T19:31:58.148Z,5.40
2019-02-17T19:34:38.909Z,5.40
2019-02-17T19:37:20.423Z,5.40
2019-02-17T19:40:01.208Z,5.30
2019-02-17T19:42:41.854Z,5.20
2019-02-17T19:45:22.640Z,5.30
2019-02-17T19:48:03.286Z,5.30
2019-02-17T19:50:44.300Z,5.20
2019-02-17T19:53:24.901Z,5.20
2019-02-17T19:56:07.434Z,5.20
2019-02-17T19:58:48.566Z,5.20
2019-02-17T20:01:29.423Z,5.10
2019-02-17T20:04:29.289Z,5.10
2019-02-17T20:07:09.753Z,5.10
2019-02-17T20:09:50.592Z,5.10
2019-02-17T20:12:31.120Z,5.10
2019-02-17T20:15:11.959Z,5.00
2019-02-17T20:17:52.556Z,4.90
2019-02-17T20:20:33.101Z,5.00
2019-02-17T20:23:13.900Z,5.00
2019-02-17T20:25:54.492Z,4.90
2019-02-17T20:28:43.066Z,4.70
2019-02-17T20:31:18.005Z,4.60
2019-02-17T20:33:58.807Z,4.50
2019-02-17T20:36:39.755Z,4.50
2019-02-17T20:39:20.608Z,4.50
2019-02-17T20:42:01.433Z,4.50
2019-02-17T20:44:42.453Z,4.60
2019-02-17T20:47:23.153Z,4.50
2019-02-17T20:50:04.004Z,4.40
2019-02-17T20:52:44.897Z,4.20
2019-02-17T20:55:25.670Z,4.20
2019-02-17T20:58:06.285Z,4.50
2019-02-17T21:00:47.262Z,4.50
2019-02-17T21:03:28.130Z,4.40
2019-02-17T21:06:12.714Z,4.30
2019-02-17T21:08:51.022Z,4.40
2019-02-17T21:11:31.730Z,4.70
2019-02-17T21:14:12.604Z,4.80
2019-02-17T21:16:53.374Z,4.70
2019-02-17T21:19:34.168Z,4.60
2019-02-17T21:22:15.062Z,4.50
2019-02-17T21:24:55.931Z,4.50
2019-02-17T21:27:36.847Z,4.50
2019-02-17T21:30:18.021Z,4.60
2019-02-17T21:32:58.805Z,4.50
2019-02-17T21:35:39.929Z,4.50
2019-02-17T21:38:20.756Z,4.40
2019-02-17T21:41:09.058Z,4.40
2019-02-17T21:43:44.362Z,4.40
2019-02-17T21:46:25.648Z,4.40
2019-02-17T21:49:06.480Z,4.30
2019-02-17T21:54:25.472Z,4.40
2019-02-17T21:57:06.281Z,4.40
2019-02-17T21:59:46.796Z,4.30
2019-02-17T22:02:27.654Z,4.30
2019-02-17T22:05:08.466Z,4.20
2019-02-17T22:07:49.479Z,4.00
2019-02-17T22:10:30.253Z,4.10
2019-02-17T22:13:10.984Z,4.10
2019-02-17T22:15:52.056Z,3.90
2019-02-17T22:18:32.952Z,3.80
2019-02-17T22:21:13.731Z,3.80
2019-02-17T22:23:54.969Z,3.80
2019-02-17T22:26:35.471Z,3.80
2019-02-17T22:29:16.212Z,3.70
2019-02-17T22:31:56.904Z,3.70
2019-02-17T22:34:37.776Z,3.60
2019-02-17T22:37:18.609Z,3.60
2019-02-17T22:39:59.553Z,3.60
2019-02-17T22:42:40.536Z,3.50
2019-02-17T22:45:21.245Z,3.40
2019-02-17T22:48:02.292Z,3.40
2019-02-17T22:50:42.961Z,3.50
2019-02-17T22:53:23.794Z,3.50
2019-02-17T22:56:04.678Z,3.40
2019-02-17T22:58:45.652Z,3.20
2019-02-17T23:01:30.416Z,3.10
2019-02-17T23:04:11.252Z,3.20
2019-02-17T23:06:54.434Z,3.20
2019-02-17T23:09:35.192Z,3.30
2019-02-17T23:12:16.189Z,3.20
2019-02-17T23:14:56.986Z,3.20
2019-02-17T23:17:37.819Z,3.20
2019-02-17T23:20:18.754Z,3.10
2019-02-17T23:22:59.562Z,3.10
2019-02-17T23:25:40.226Z,3.10
2019-02-17T23:28:20.930Z,3.00
2019-02-17T23:31:02.109Z,3.00
2019-02-17T23:33:42.813Z,2.90
2019-02-17T23:36:23.729Z,2.80
2019-02-17T23:39:05.055Z,2.80
2019-02-17T23:41:46.085Z,2.70
2019-02-17T23:44:26.963Z,2.80
2019-02-17T23:47:07.633Z,2.80
2019-02-17T23:49:48.357Z,2.90
2019-02-17T23:52:29.391Z,2.90
2019-02-17T23:55:10.415Z,2.90
2019-02-17T23:57:51.241Z,2.80
